sensor_id;sensor_type;location;lat;lon;timestamp;pressure;altitude;pressure_sealevel;temperature;humidity
25084;BME280;13075;55.682;37.564;2023-04-21T00:02:24;99626.91;;;14.39;29.35
25084;BME280;13075;55.682;37.564;2023-04-21T00:04:51;99621.53;;;14.57;29.22
25084;BME280;13075;55.682;37.564;2023-04-21T00:07:17;99633.59;;;14.29;29.46
25084;BME280;13075;55.682;37.564;2023-04-21T00:09:44;99627.50;;;14.41;29.38
25084;BME280;13075;55.682;37.564;2023-04-21T00:12:09;99623.50;;;14.68;29.51
25084;BME280;13075;55.682;37.564;2023-04-21T00:14:35;99617.34;;;14.61;29.60
25084;BME280;13075;55.682;37.564;2023-04-21T00:17:00;99612.72;;;14.68;29.80
25084;BME280;13075;55.682;37.564;2023-04-21T00:19:26;99623.44;;;14.07;29.71
25084;BME280;13075;55.682;37.564;2023-04-21T00:21:53;99628.28;;;13.98;29.74
25084;BME280;13075;55.682;37.564;2023-04-21T00:24:23;99613.94;;;14.29;29.77
25084;BME280;13075;55.682;37.564;2023-04-21T00:26:48;99628.84;;;14.25;29.43
25084;BME280;13075;55.682;37.564;2023-04-21T00:29:14;99619.28;;;14.11;29.43
25084;BME280;13075;55.682;37.564;2023-04-21T00:31:39;99627.44;;;14.22;29.56
25084;BME280;13075;55.682;37.564;2023-04-21T00:34:05;99618.56;;;14.22;29.71
25084;BME280;13075;55.682;37.564;2023-04-21T00:36:30;99610.66;;;14.27;29.74
25084;BME280;13075;55.682;37.564;2023-04-21T00:38:56;99616.38;;;14.30;29.31
25084;BME280;13075;55.682;37.564;2023-04-21T00:41:21;99616.63;;;14.04;29.65
25084;BME280;13075;55.682;37.564;2023-04-21T00:46:29;99608.50;;;14.11;29.71
25084;BME280;13075;55.682;37.564;2023-04-21T00:48:56;99605.16;;;14.15;29.71
25084;BME280;13075;55.682;37.564;2023-04-21T00:51:21;99603.56;;;14.32;30.11
25084;BME280;13075;55.682;37.564;2023-04-21T00:53:47;99601.34;;;14.23;30.10
25084;BME280;13075;55.682;37.564;2023-04-21T00:56:12;99602.84;;;14.19;30.31
25084;BME280;13075;55.682;37.564;2023-04-21T00:58:39;99592.84;;;14.26;31.58
25084;BME280;13075;55.682;37.564;2023-04-21T01:01:06;99588.63;;;14.12;30.57
25084;BME280;13075;55.682;37.564;2023-04-21T01:03:31;99588.25;;;14.08;30.62
25084;BME280;13075;55.682;37.564;2023-04-21T01:05:57;99587.03;;;14.04;30.48
25084;BME280;13075;55.682;37.564;2023-04-21T01:08:22;99592.69;;;13.96;30.54
25084;BME280;13075;55.682;37.564;2023-04-21T01:10:48;99595.78;;;14.00;30.67
25084;BME280;13075;55.682;37.564;2023-04-21T01:13:13;99593.88;;;13.82;30.74
25084;BME280;13075;55.682;37.564;2023-04-21T01:15:38;99586.31;;;13.72;30.89
25084;BME280;13075;55.682;37.564;2023-04-21T01:18:04;99593.88;;;13.82;30.88
25084;BME280;13075;55.682;37.564;2023-04-21T01:20:30;99588.22;;;13.90;30.76
25084;BME280;13075;55.682;37.564;2023-04-21T01:22:56;99587.88;;;13.80;30.94
25084;BME280;13075;55.682;37.564;2023-04-21T01:25:23;99587.31;;;13.96;32.03
25084;BME280;13075;55.682;37.564;2023-04-21T01:27:52;99588.13;;;13.47;31.44
25084;BME280;13075;55.682;37.564;2023-04-21T01:30:19;99586.31;;;13.72;31.47
25084;BME280;13075;55.682;37.564;2023-04-21T01:32:45;99582.22;;;13.63;31.16
25084;BME280;13075;55.682;37.564;2023-04-21T01:35:10;99583.81;;;13.71;30.85
25084;BME280;13075;55.682;37.564;2023-04-21T01:37:37;99593.63;;;13.59;31.57
25084;BME280;13075;55.682;37.564;2023-04-21T01:40:04;99589.03;;;13.35;31.34
25084;BME280;13075;55.682;37.564;2023-04-21T01:42:32;99579.03;;;13.48;31.21
25084;BME280;13075;55.682;37.564;2023-04-21T01:44:58;99583.53;;;13.54;31.23
25084;BME280;13075;55.682;37.564;2023-04-21T01:47:24;99579.59;;;13.57;30.76
25084;BME280;13075;55.682;37.564;2023-04-21T01:49:50;99588.69;;;13.56;30.98
25084;BME280;13075;55.682;37.564;2023-04-21T01:52:17;99582.91;;;13.52;30.99
25084;BME280;13075;55.682;37.564;2023-04-21T01:54:44;99585.59;;;13.52;30.96
25084;BME280;13075;55.682;37.564;2023-04-21T01:57:09;99585.66;;;13.46;31.21
25084;BME280;13075;55.682;37.564;2023-04-21T01:59:35;99579.25;;;13.47;31.11
25084;BME280;13075;55.682;37.564;2023-04-21T02:02:01;99571.78;;;13.49;31.42
25084;BME280;13075;55.682;37.564;2023-04-21T02:04:27;99579.63;;;13.50;31.14
25084;BME280;13075;55.682;37.564;2023-04-21T02:06:52;99579.28;;;13.40;31.86
25084;BME280;13075;55.682;37.564;2023-04-21T02:09:18;99578.38;;;13.53;31.18
25084;BME280;13075;55.682;37.564;2023-04-21T02:11:43;99583.56;;;13.48;32.26
25084;BME280;13075;55.682;37.564;2023-04-21T02:14:09;99575.06;;;13.57;32.64
25084;BME280;13075;55.682;37.564;2023-04-21T02:16:34;99578.88;;;13.68;31.99
25084;BME280;13075;55.682;37.564;2023-04-21T02:19:00;99582.22;;;13.63;32.41
25084;BME280;13075;55.682;37.564;2023-04-21T02:21:26;99577.19;;;13.42;31.23
25084;BME280;13075;55.682;37.564;2023-04-21T02:23:51;99592.69;;;13.47;31.03
25084;BME280;13075;55.682;37.564;2023-04-21T02:26:17;99591.81;;;13.53;31.08
25084;BME280;13075;55.682;37.564;2023-04-21T02:28:43;99584.97;;;13.57;30.83
25084;BME280;13075;55.682;37.564;2023-04-21T02:31:08;99587.75;;;13.68;31.21
25084;BME280;13075;55.682;37.564;2023-04-21T02:33:34;99579.53;;;13.63;30.80
25084;BME280;13075;55.682;37.564;2023-04-21T02:35:59;99577.06;;;13.62;30.98
25084;BME280;13075;55.682;37.564;2023-04-21T02:38:25;99582.56;;;13.73;32.33
25084;BME280;13075;55.682;37.564;2023-04-21T02:40:50;99588.25;;;13.59;31.11
25084;BME280;13075;55.682;37.564;2023-04-21T02:43:17;99570.53;;;13.76;31.99
25084;BME280;13075;55.682;37.564;2023-04-21T02:45:42;99576.66;;;13.65;31.26
25084;BME280;13075;55.682;37.564;2023-04-21T02:48:08;99580.13;;;13.65;31.45
25084;BME280;13075;55.682;37.564;2023-04-21T02:50:34;99580.03;;;13.79;32.17
25084;BME280;13075;55.682;37.564;2023-04-21T02:52:59;99582.63;;;13.67;31.57
25084;BME280;13075;55.682;37.564;2023-04-21T02:55:25;99573.63;;;13.80;31.83
25084;BME280;13075;55.682;37.564;2023-04-21T02:57:50;99570.09;;;13.54;31.39
25084;BME280;13075;55.682;37.564;2023-04-21T03:00:16;99585.31;;;13.67;31.11
25084;BME280;13075;55.682;37.564;2023-04-21T03:02:42;99577.06;;;13.62;31.25
25084;BME280;13075;55.682;37.564;2023-04-21T03:05:08;99579.00;;;13.55;32.06
25084;BME280;13075;55.682;37.564;2023-04-21T03:07:34;99579.03;;;13.48;31.42
25084;BME280;13075;55.682;37.564;2023-04-21T03:10:00;99578.66;;;13.69;30.93
25084;BME280;13075;55.682;37.564;2023-04-21T03:12:26;99575.53;;;13.72;30.98
25084;BME280;13075;55.682;37.564;2023-04-21T03:14:51;99577.06;;;13.62;30.97
25084;BME280;13075;55.682;37.564;2023-04-21T03:17:17;99586.56;;;13.64;30.79
25084;BME280;13075;55.682;37.564;2023-04-21T03:19:42;99587.06;;;13.80;31.01
25084;BME280;13075;55.682;37.564;2023-04-21T03:22:08;99597.53;;;13.63;30.63
25084;BME280;13075;55.682;37.564;2023-04-21T03:24:34;99595.38;;;13.96;30.41
25084;BME280;13075;55.682;37.564;2023-04-21T03:26:59;99584.81;;;14.62;29.68
25084;BME280;13075;55.682;37.564;2023-04-21T03:29:26;99588.44;;;15.75;28.29
25084;BME280;13075;55.682;37.564;2023-04-21T03:31:52;99583.88;;;16.34;27.89
25084;BME280;13075;55.682;37.564;2023-04-21T03:34:19;99585.41;;;16.64;27.11
25084;BME280;13075;55.682;37.564;2023-04-21T03:36:44;99592.19;;;17.18;26.87
25084;BME280;13075;55.682;37.564;2023-04-21T03:39:10;99584.44;;;16.70;27.27
25084;BME280;13075;55.682;37.564;2023-04-21T03:41:35;99577.75;;;16.73;27.23
25084;BME280;13075;55.682;37.564;2023-04-21T03:44:02;99580.34;;;17.08;27.53
25084;BME280;13075;55.682;37.564;2023-04-21T03:46:27;99588.59;;;16.38;27.43
25084;BME280;13075;55.682;37.564;2023-04-21T03:48:53;99587.16;;;16.70;27.16
25084;BME280;13075;55.682;37.564;2023-04-21T03:51:18;99595.00;;;17.12;26.83
25084;BME280;13075;55.682;37.564;2023-04-21T03:53:44;99579.34;;;16.86;26.83
25084;BME280;13075;55.682;37.564;2023-04-21T03:56:09;99579.19;;;16.52;27.28
25084;BME280;13075;55.682;37.564;2023-04-21T03:58:35;99584.31;;;16.77;27.16
25084;BME280;13075;55.682;37.564;2023-04-21T04:01:00;99583.44;;;16.88;27.06
25084;BME280;13075;55.682;37.564;2023-04-21T04:03:26;99588.44;;;16.68;27.46
25084;BME280;13075;55.682;37.564;2023-04-21T04:05:52;99582.03;;;16.97;27.46
25084;BME280;13075;55.682;37.564;2023-04-21T04:08:17;99583.59;;;17.21;27.56
25084;BME280;13075;55.682;37.564;2023-04-21T04:10:43;99578.03;;;17.28;27.79
25084;BME280;13075;55.682;37.564;2023-04-21T04:13:08;99578.03;;;17.89;26.57
25084;BME280;13075;55.682;37.564;2023-04-21T04:15:34;99580.91;;;17.38;27.04
25084;BME280;13075;55.682;37.564;2023-04-21T04:17:59;99567.50;;;16.75;27.78
25084;BME280;13075;55.682;37.564;2023-04-21T04:20:25;99561.81;;;16.37;28.08
25084;BME280;13075;55.682;37.564;2023-04-21T04:22:51;99576.13;;;16.60;27.72
25084;BME280;13075;55.682;37.564;2023-04-21T04:25:17;99570.66;;;16.95;27.67
25084;BME280;13075;55.682;37.564;2023-04-21T04:27:42;99574.16;;;17.69;27.52
25084;BME280;13075;55.682;37.564;2023-04-21T04:30:08;99559.44;;;19.40;25.23
25084;BME280;13075;55.682;37.564;2023-04-21T04:32:34;99564.00;;;20.91;23.99
25084;BME280;13075;55.682;37.564;2023-04-21T04:35:02;99561.63;;;22.61;22.77
25084;BME280;13075;55.682;37.564;2023-04-21T04:37:28;99563.06;;;21.58;22.99
25084;BME280;13075;55.682;37.564;2023-04-21T04:39:53;99563.34;;;20.64;23.93
25084;BME280;13075;55.682;37.564;2023-04-21T04:42:18;99557.47;;;22.79;22.45
25084;BME280;13075;55.682;37.564;2023-04-21T04:44:45;99564.31;;;22.81;22.19
25084;BME280;13075;55.682;37.564;2023-04-21T04:47:11;99569.16;;;23.48;21.36
25084;BME280;13075;55.682;37.564;2023-04-21T04:49:36;99564.47;;;25.16;20.23
25084;BME280;13075;55.682;37.564;2023-04-21T04:52:10;99557.06;;;24.98;20.26
25084;BME280;13075;55.682;37.564;2023-04-21T04:54:35;99566.28;;;22.46;21.92
25084;BME280;13075;55.682;37.564;2023-04-21T04:57:01;99564.75;;;20.77;23.61
25084;BME280;13075;55.682;37.564;2023-04-21T04:59:26;99561.63;;;20.48;23.70
25084;BME280;13075;55.682;37.564;2023-04-21T05:01:52;99563.00;;;22.64;22.20
25084;BME280;13075;55.682;37.564;2023-04-21T05:04:17;99562.25;;;23.95;21.10
25084;BME280;13075;55.682;37.564;2023-04-21T05:06:43;99557.47;;;24.87;20.23
25084;BME280;13075;55.682;37.564;2023-04-21T05:09:08;99552.41;;;25.36;20.05
25084;BME280;13075;55.682;37.564;2023-04-21T05:11:34;99555.69;;;25.89;19.09
25084;BME280;13075;55.682;37.564;2023-04-21T05:14:00;99545.63;;;25.52;19.40
25084;BME280;13075;55.682;37.564;2023-04-21T05:16:25;99539.50;;;27.64;18.72
25084;BME280;13075;55.682;37.564;2023-04-21T05:18:50;99530.50;;;33.64;15.23
25084;BME280;13075;55.682;37.564;2023-04-21T05:21:27;99529.69;;;34.50;14.21
25084;BME280;13075;55.682;37.564;2023-04-21T05:23:56;99523.06;;;35.97;13.30
25084;BME280;13075;55.682;37.564;2023-04-21T05:26:22;99523.28;;;35.12;14.06
25084;BME280;13075;55.682;37.564;2023-04-21T05:28:47;99526.09;;;34.50;14.14
25084;BME280;13075;55.682;37.564;2023-04-21T05:31:13;99512.38;;;34.57;14.37
25084;BME280;13075;55.682;37.564;2023-04-21T05:33:39;99521.63;;;32.58;15.16
25084;BME280;13075;55.682;37.564;2023-04-21T05:36:08;99522.00;;;30.20;16.36
25084;BME280;13075;55.682;37.564;2023-04-21T05:38:34;99522.69;;;28.50;17.12
25084;BME280;13075;55.682;37.564;2023-04-21T05:40:59;99523.25;;;31.69;15.35
25084;BME280;13075;55.682;37.564;2023-04-21T05:43:25;99524.44;;;33.74;14.12
25084;BME280;13075;55.682;37.564;2023-04-21T05:45:50;99532.44;;;35.32;13.51
25084;BME280;13075;55.682;37.564;2023-04-21T05:48:16;99523.75;;;34.52;13.61
25084;BME280;13075;55.682;37.564;2023-04-21T05:50:41;99526.66;;;29.65;15.98
25084;BME280;13075;55.682;37.564;2023-04-21T05:53:07;99519.22;;;26.75;17.81
25084;BME280;13075;55.682;37.564;2023-04-21T05:55:33;99525.38;;;25.29;18.68
25084;BME280;13075;55.682;37.564;2023-04-21T05:57:58;99527.53;;;25.51;19.07
25084;BME280;13075;55.682;37.564;2023-04-21T06:00:23;99524.56;;;25.29;19.22
25084;BME280;13075;55.682;37.564;2023-04-21T06:02:49;99517.03;;;26.50;18.54
25084;BME280;13075;55.682;37.564;2023-04-21T06:05:14;99509.78;;;29.32;16.79
25084;BME280;13075;55.682;37.564;2023-04-21T06:07:40;99516.09;;;30.48;15.49
25084;BME280;13075;55.682;37.564;2023-04-21T06:10:06;99508.56;;;32.95;15.43
25084;BME280;13075;55.682;37.564;2023-04-21T06:12:31;99503.06;;;33.90;14.15
25084;BME280;13075;55.682;37.564;2023-04-21T06:14:56;99502.88;;;34.42;13.76
25084;BME280;13075;55.682;37.564;2023-04-21T06:17:22;99503.53;;;33.92;13.82
25084;BME280;13075;55.682;37.564;2023-04-21T06:19:48;99500.00;;;33.52;14.04
25084;BME280;13075;55.682;37.564;2023-04-21T06:22:20;99504.44;;;32.77;14.60
25084;BME280;13075;55.682;37.564;2023-04-21T06:24:46;99504.91;;;35.27;13.25
25084;BME280;13075;55.682;37.564;2023-04-21T06:27:11;99515.44;;;33.93;13.82
25084;BME280;13075;55.682;37.564;2023-04-21T06:29:37;99511.47;;;34.21;13.81
25084;BME280;13075;55.682;37.564;2023-04-21T06:32:03;99496.56;;;36.26;13.04
25084;BME280;13075;55.682;37.564;2023-04-21T06:34:29;99510.78;;;33.97;13.57
25084;BME280;13075;55.682;37.564;2023-04-21T06:36:54;99506.16;;;31.67;15.16
25084;BME280;13075;55.682;37.564;2023-04-21T06:39:20;99496.72;;;33.22;14.29
25084;BME280;13075;55.682;37.564;2023-04-21T06:41:45;99499.66;;;35.79;13.42
25084;BME280;13075;55.682;37.564;2023-04-21T06:44:10;99498.16;;;33.83;14.26
25084;BME280;13075;55.682;37.564;2023-04-21T06:46:41;99498.75;;;35.18;13.57
25084;BME280;13075;55.682;37.564;2023-04-21T06:49:07;99508.00;;;34.24;13.94
25084;BME280;13075;55.682;37.564;2023-04-21T06:51:32;99493.56;;;33.08;14.47
25084;BME280;13075;55.682;37.564;2023-04-21T06:53:58;99493.72;;;31.61;14.67
25084;BME280;13075;55.682;37.564;2023-04-21T06:56:25;99500.38;;;30.90;15.86
25084;BME280;13075;55.682;37.564;2023-04-21T06:58:50;99484.88;;;31.26;15.40
25084;BME280;13075;55.682;37.564;2023-04-21T07:01:16;99490.88;;;35.04;13.84
25084;BME280;13075;55.682;37.564;2023-04-21T07:03:41;99473.41;;;35.42;13.12
25084;BME280;13075;55.682;37.564;2023-04-21T07:06:07;99479.28;;;39.34;11.67
25084;BME280;13075;55.682;37.564;2023-04-21T07:08:32;99480.34;;;40.40;10.73
25084;BME280;13075;55.682;37.564;2023-04-21T07:10:58;99471.81;;;41.25;10.64
25084;BME280;13075;55.682;37.564;2023-04-21T07:13:23;99469.91;;;40.83;10.85
25084;BME280;13075;55.682;37.564;2023-04-21T07:15:49;99459.94;;;43.50;10.07
25084;BME280;13075;55.682;37.564;2023-04-21T07:18:14;99460.19;;;44.86;9.45
25084;BME280;13075;55.682;37.564;2023-04-21T07:20:40;99451.34;;;46.63;9.10
25084;BME280;13075;55.682;37.564;2023-04-21T07:23:05;99451.81;;;45.41;8.93
25084;BME280;13075;55.682;37.564;2023-04-21T07:25:31;99444.03;;;46.01;8.88
25084;BME280;13075;55.682;37.564;2023-04-21T07:27:56;99444.25;;;45.90;8.53
25084;BME280;13075;55.682;37.564;2023-04-21T07:30:22;99444.56;;;46.44;8.67
25084;BME280;13075;55.682;37.564;2023-04-21T07:32:47;99452.41;;;47.80;8.33
25084;BME280;13075;55.682;37.564;2023-04-21T07:35:13;99441.69;;;46.60;8.39
25084;BME280;13075;55.682;37.564;2023-04-21T07:37:38;99445.31;;;47.47;8.09
25084;BME280;13075;55.682;37.564;2023-04-21T07:40:05;99446.91;;;46.62;8.32
25084;BME280;13075;55.682;37.564;2023-04-21T07:42:31;99438.34;;;47.23;8.52
25084;BME280;13075;55.682;37.564;2023-04-21T07:44:56;99436.97;;;47.69;8.08
25084;BME280;13075;55.682;37.564;2023-04-21T07:47:22;99420.44;;;46.84;8.30
25084;BME280;13075;55.682;37.564;2023-04-21T07:49:47;99420.28;;;48.90;7.63
25084;BME280;13075;55.682;37.564;2023-04-21T07:52:13;99434.44;;;47.71;8.27
25084;BME280;13075;55.682;37.564;2023-04-21T07:54:38;99428.13;;;47.92;7.76
25084;BME280;13075;55.682;37.564;2023-04-21T07:57:03;99424.63;;;47.88;7.84
25084;BME280;13075;55.682;37.564;2023-04-21T07:59:29;99421.03;;;48.09;8.00
25084;BME280;13075;55.682;37.564;2023-04-21T08:01:54;99421.75;;;48.26;7.70
25084;BME280;13075;55.682;37.564;2023-04-21T08:04:20;99412.88;;;48.92;7.38
25084;BME280;13075;55.682;37.564;2023-04-21T08:06:46;99405.16;;;48.93;7.74
25084;BME280;13075;55.682;37.564;2023-04-21T08:09:11;99406.72;;;46.38;8.18
25084;BME280;13075;55.682;37.564;2023-04-21T08:11:37;99401.44;;;48.02;7.89
25084;BME280;13075;55.682;37.564;2023-04-21T08:14:02;99393.00;;;45.16;8.35
25084;BME280;13075;55.682;37.564;2023-04-21T08:16:28;99398.28;;;45.14;8.32
25084;BME280;13075;55.682;37.564;2023-04-21T08:18:53;99405.75;;;42.71;8.70
25084;BME280;13075;55.682;37.564;2023-04-21T08:21:19;99408.03;;;36.16;11.25
25084;BME280;13075;55.682;37.564;2023-04-21T08:23:44;99409.31;;;32.36;13.29
25084;BME280;13075;55.682;37.564;2023-04-21T08:26:10;99405.94;;;31.17;14.27
25084;BME280;13075;55.682;37.564;2023-04-21T08:28:35;99407.88;;;29.79;15.19
25084;BME280;13075;55.682;37.564;2023-04-21T08:31:00;99405.50;;;29.17;15.86
25084;BME280;13075;55.682;37.564;2023-04-21T08:33:26;99400.97;;;29.38;15.73
25084;BME280;13075;55.682;37.564;2023-04-21T08:35:52;99408.53;;;28.56;16.73
25084;BME280;13075;55.682;37.564;2023-04-21T08:38:17;99401.00;;;28.95;16.04
25084;BME280;13075;55.682;37.564;2023-04-21T08:40:42;99388.69;;;27.80;16.53
25084;BME280;13075;55.682;37.564;2023-04-21T08:43:08;99394.31;;;27.75;17.20
25084;BME280;13075;55.682;37.564;2023-04-21T08:45:34;99390.19;;;27.86;16.89
25084;BME280;13075;55.682;37.564;2023-04-21T08:48:00;99378.56;;;28.46;16.55
25084;BME280;13075;55.682;37.564;2023-04-21T08:50:30;99383.91;;;28.51;16.32
25084;BME280;13075;55.682;37.564;2023-04-21T08:52:55;99371.59;;;28.39;16.32
25084;BME280;13075;55.682;37.564;2023-04-21T08:55:25;99365.44;;;28.60;16.31
25084;BME280;13075;55.682;37.564;2023-04-21T08:57:52;99377.19;;;28.82;16.57
25084;BME280;13075;55.682;37.564;2023-04-21T09:00:17;99361.41;;;28.40;16.77
25084;BME280;13075;55.682;37.564;2023-04-21T09:02:52;99357.91;;;27.69;17.44
25084;BME280;13075;55.682;37.564;2023-04-21T09:05:28;99372.50;;;27.26;17.61
25084;BME280;13075;55.682;37.564;2023-04-21T09:08:05;99363.88;;;27.63;17.38
25084;BME280;13075;55.682;37.564;2023-04-21T09:10:32;99360.13;;;27.06;18.12
25084;BME280;13075;55.682;37.564;2023-04-21T09:12:58;99360.13;;;25.66;18.83
25084;BME280;13075;55.682;37.564;2023-04-21T09:15:23;99354.03;;;25.69;18.97
25084;BME280;13075;55.682;37.564;2023-04-21T09:17:53;99355.25;;;25.90;19.22
25084;BME280;13075;55.682;37.564;2023-04-21T09:20:20;99352.84;;;24.97;20.00
25084;BME280;13075;55.682;37.564;2023-04-21T09:22:49;99351.66;;;25.03;19.86
25084;BME280;13075;55.682;37.564;2023-04-21T09:25:16;99357.78;;;23.73;20.63
25084;BME280;13075;55.682;37.564;2023-04-21T09:27:41;99362.38;;;24.44;20.41
25084;BME280;13075;55.682;37.564;2023-04-21T09:30:07;99340.84;;;25.85;19.17
25084;BME280;13075;55.682;37.564;2023-04-21T09:32:39;99339.97;;;26.88;18.39
25084;BME280;13075;55.682;37.564;2023-04-21T09:35:10;99341.59;;;27.73;18.00
25084;BME280;13075;55.682;37.564;2023-04-21T09:37:36;99333.72;;;27.49;18.00
25084;BME280;13075;55.682;37.564;2023-04-21T09:40:02;99328.63;;;26.05;19.00
25084;BME280;13075;55.682;37.564;2023-04-21T09:42:28;99346.78;;;25.00;19.71
25084;BME280;13075;55.682;37.564;2023-04-21T09:44:54;99331.84;;;23.47;20.80
25084;BME280;13075;55.682;37.564;2023-04-21T09:47:20;99333.94;;;23.26;21.37
25084;BME280;13075;55.682;37.564;2023-04-21T09:49:46;99325.69;;;25.14;19.99
25084;BME280;13075;55.682;37.564;2023-04-21T09:52:15;99329.53;;;26.99;18.78
25084;BME280;13075;55.682;37.564;2023-04-21T09:54:51;99320.00;;;27.49;18.40
25084;BME280;13075;55.682;37.564;2023-04-21T09:57:23;99321.28;;;28.90;17.61
25084;BME280;13075;55.682;37.564;2023-04-21T09:59:51;99324.53;;;28.67;17.63
25084;BME280;13075;55.682;37.564;2023-04-21T10:02:18;99316.66;;;27.08;18.65
25084;BME280;13075;55.682;37.564;2023-04-21T10:04:44;99322.22;;;24.95;20.10
25084;BME280;13075;55.682;37.564;2023-04-21T10:07:10;99311.94;;;24.87;20.61
25084;BME280;13075;55.682;37.564;2023-04-21T10:09:55;99303.28;;;25.85;20.27
25084;BME280;13075;55.682;37.564;2023-04-21T10:12:21;99308.94;;;25.89;20.04
25084;BME280;13075;55.682;37.564;2023-04-21T10:14:56;99312.03;;;24.82;20.67
25084;BME280;13075;55.682;37.564;2023-04-21T10:17:22;99309.22;;;23.89;21.56
25084;BME280;13075;55.682;37.564;2023-04-21T10:19:54;99313.22;;;23.96;21.28
25084;BME280;13075;55.682;37.564;2023-04-21T10:22:33;99300.66;;;23.95;21.34
25084;BME280;13075;55.682;37.564;2023-04-21T10:25:00;99295.41;;;23.56;22.04
25084;BME280;13075;55.682;37.564;2023-04-21T10:29:57;99281.28;;;22.92;22.65
25084;BME280;13075;55.682;37.564;2023-04-21T10:35:07;99273.34;;;23.24;22.61
25084;BME280;13075;55.682;37.564;2023-04-21T10:37:32;99278.09;;;22.46;23.03
25084;BME280;13075;55.682;37.564;2023-04-21T10:39:58;99270.31;;;21.86;23.70
25084;BME280;13075;55.682;37.564;2023-04-21T10:42:24;99271.16;;;21.71;24.15
25084;BME280;13075;55.682;37.564;2023-04-21T10:47:28;99279.56;;;22.33;23.58
25084;BME280;13075;55.682;37.564;2023-04-21T10:49:55;99270.69;;;22.13;23.51
25084;BME280;13075;55.682;37.564;2023-04-21T10:52:21;99265.47;;;22.21;23.40
25084;BME280;13075;55.682;37.564;2023-04-21T10:57:16;99258.53;;;22.78;23.07
25084;BME280;13075;55.682;37.564;2023-04-21T10:59:41;99258.22;;;22.79;23.21
25084;BME280;13075;55.682;37.564;2023-04-21T11:02:08;99259.84;;;22.47;23.27
25084;BME280;13075;55.682;37.564;2023-04-21T11:04:35;99249.69;;;22.91;23.16
25084;BME280;13075;55.682;37.564;2023-04-21T11:07:10;99254.44;;;22.75;23.12
25084;BME280;13075;55.682;37.564;2023-04-21T11:09:36;99255.38;;;22.61;23.47
25084;BME280;13075;55.682;37.564;2023-04-21T11:12:06;99259.72;;;22.62;23.41
25084;BME280;13075;55.682;37.564;2023-04-21T11:14:32;99254.09;;;22.82;23.38
25084;BME280;13075;55.682;37.564;2023-04-21T11:16:59;99244.00;;;22.82;23.35
25084;BME280;13075;55.682;37.564;2023-04-21T11:19:25;99252.88;;;22.69;23.69
25084;BME280;13075;55.682;37.564;2023-04-21T11:21:54;99244.25;;;22.52;23.89
25084;BME280;13075;55.682;37.564;2023-04-21T11:24:19;99229.84;;;22.80;23.69
25084;BME280;13075;55.682;37.564;2023-04-21T11:26:45;99235.63;;;22.74;23.69
25084;BME280;13075;55.682;37.564;2023-04-21T11:29:10;99239.13;;;22.46;23.93
25084;BME280;13075;55.682;37.564;2023-04-21T11:31:37;99238.63;;;22.00;24.27
25084;BME280;13075;55.682;37.564;2023-04-21T11:34:03;99241.81;;;21.58;23.99
25084;BME280;13075;55.682;37.564;2023-04-21T11:36:32;99243.75;;;21.47;24.33
25084;BME280;13075;55.682;37.564;2023-04-21T11:38:58;99237.16;;;21.63;24.16
25084;BME280;13075;55.682;37.564;2023-04-21T11:41:24;99224.06;;;21.65;24.49
25084;BME280;13075;55.682;37.564;2023-04-21T11:43:50;99229.59;;;22.04;24.42
25084;BME280;13075;55.682;37.564;2023-04-21T11:46:17;99221.84;;;22.26;24.30
25084;BME280;13075;55.682;37.564;2023-04-21T11:48:43;99214.81;;;22.15;24.20
25084;BME280;13075;55.682;37.564;2023-04-21T11:51:15;99207.16;;;22.17;24.03
25084;BME280;13075;55.682;37.564;2023-04-21T11:53:41;99213.63;;;22.31;24.22
25084;BME280;13075;55.682;37.564;2023-04-21T11:56:07;99205.47;;;22.65;24.11
25084;BME280;13075;55.682;37.564;2023-04-21T11:58:33;99203.00;;;22.59;24.09
25084;BME280;13075;55.682;37.564;2023-04-21T12:01:05;99206.56;;;22.25;24.11
25084;BME280;13075;55.682;37.564;2023-04-21T12:03:31;99195.53;;;22.74;24.09
25084;BME280;13075;55.682;37.564;2023-04-21T12:05:56;99192.66;;;22.89;23.93
25084;BME280;13075;55.682;37.564;2023-04-21T12:08:22;99192.88;;;23.64;23.36
25084;BME280;13075;55.682;37.564;2023-04-21T12:10:47;99189.72;;;23.76;23.13
25084;BME280;13075;55.682;37.564;2023-04-21T12:13:19;99196.59;;;23.92;23.18
25084;BME280;13075;55.682;37.564;2023-04-21T12:15:46;99194.94;;;21.66;24.37
25084;BME280;13075;55.682;37.564;2023-04-21T12:18:12;99194.13;;;21.65;24.64
25084;BME280;13075;55.682;37.564;2023-04-21T12:20:38;99195.25;;;21.59;24.73
25084;BME280;13075;55.682;37.564;2023-04-21T12:23:12;99198.06;;;21.44;24.69
25084;BME280;13075;55.682;37.564;2023-04-21T12:25:38;99203.94;;;21.61;24.76
25084;BME280;13075;55.682;37.564;2023-04-21T12:28:03;99195.88;;;21.41;24.96
25084;BME280;13075;55.682;37.564;2023-04-21T12:30:32;99193.66;;;22.02;24.33
25084;BME280;13075;55.682;37.564;2023-04-21T12:32:57;99184.16;;;21.95;24.42
25084;BME280;13075;55.682;37.564;2023-04-21T12:35:24;99196.81;;;22.19;24.02
25084;BME280;13075;55.682;37.564;2023-04-21T12:37:50;99193.16;;;21.41;24.59
25084;BME280;13075;55.682;37.564;2023-04-21T12:40:15;99178.88;;;21.64;24.55
25084;BME280;13075;55.682;37.564;2023-04-21T12:42:41;99168.28;;;22.41;24.09
25084;BME280;13075;55.682;37.564;2023-04-21T12:45:07;99170.44;;;22.44;23.88
25084;BME280;13075;55.682;37.564;2023-04-21T12:47:32;99170.66;;;22.81;23.60
25084;BME280;13075;55.682;37.564;2023-04-21T12:49:58;99171.38;;;21.95;24.02
25084;BME280;13075;55.682;37.564;2023-04-21T12:52:23;99166.31;;;21.68;24.54
25084;BME280;13075;55.682;37.564;2023-04-21T12:54:49;99164.72;;;21.08;24.80
25084;BME280;13075;55.682;37.564;2023-04-21T12:57:14;99167.97;;;21.05;24.85
25084;BME280;13075;55.682;37.564;2023-04-21T12:59:40;99164.66;;;21.29;24.50